Time;durP1;ratioP1;P1;durP2;ratioP2;P2;SDS_P1;SDS_P2;PMS_P1;PMS_P2;Temp;Humidity;BMP_temperature;BMP_pressure;BME280_temperature;BME280_humidity;BME280_pressure;Samples;Min_cycle;Max_cycle;Signal;HPM_P1;HPM_P2
2022/12/02 00:00:50;;;;;;;;;;;;;;;;;;5074820;28;19915;-56
2022/12/02 00:03:16;;;;;;;;;;;;;;;;;;5056553;28;19913;-57
2022/12/02 00:05:42;;;;;;;;;;;;;;;;;;5074787;28;19916;-58
2022/12/02 00:08:07;;;;;;;;;;;;;;;;;;5074031;28;19916;-57
2022/12/02 00:10:33;;;;;;;;;;;;;;;;;;5074350;28;19916;-56
2022/12/02 00:12:59;;;;;;;;;;;;;;;;;;5056483;28;20380;-56
2022/12/02 00:15:25;;;;;;;;;;;;;;;;;;5073260;28;19921;-58
2022/12/02 00:17:51;;;;;;;;;;;;;;;;;;5073986;28;19919;-58
2022/12/02 00:20:17;;;;;;;;;;;;;;;;;;5073778;28;19999;-57
2022/12/02 00:22:43;;;;;;;;;;;;;;;;;;5073973;28;20388;-56
2022/12/02 00:25:09;;;;;;;;;;;;;;;;;;5074240;28;19912;-58
2022/12/02 00:27:35;;;;;;;;;;;;;;;;;;5074074;28;19913;-58
2022/12/02 00:30:00;;;;;;;;;;;;;;;;;;5073904;28;19917;-56
2022/12/02 00:32:26;;;;;;;;;;;;;;;;;;5073817;28;20353;-56
2022/12/02 00:34:52;;;;;;;;;;;;;;;;;;5073456;28;20019;-55
2022/12/02 00:37:18;;;;;;;;;;;;;;;;;;5055585;28;19912;-58
2022/12/02 00:39:44;;;;;;;;;;;;;;;;;;5073874;28;20007;-57
2022/12/02 00:42:10;;;;;;;;;;;;;;;;;;5073971;28;19955;-56
2022/12/02 00:47:20;;;;;;;;;;;;;;;;;;5073768;28;19975;-58
2022/12/02 00:49:46;;;;;;;;;;;;;;;;;;5072783;28;19920;-58
2022/12/02 00:52:12;;;;;;;;;;;;;;;;;;5073621;28;20090;-58
2022/12/02 00:54:38;;;;;;;;;;;;;;;;;;5073589;28;19913;-58
2022/12/02 00:57:05;;;;;;;;;;;;;;;;;;5073563;28;19913;-56
2022/12/02 00:59:31;;;;;;;;;;;;;;;;;;5073271;28;19938;-56
2022/12/02 01:01:57;;;;;;;;;;;;;;;;;;5073065;28;20038;-57
2022/12/02 01:04:23;;;;;;;;;;;;;;;;;;5072764;28;20010;-58
2022/12/02 01:06:49;;;;;;;;;;;;;;;;;;5073418;28;19912;-56
2022/12/02 01:09:14;;;;;;;;;;;;;;;;;;5072942;28;19923;-58
2022/12/02 01:11:40;;;;;;;;;;;;;;;;;;5073282;28;19995;-57
2022/12/02 01:14:06;;;;;;;;;;;;;;;;;;5055100;28;19981;-58
2022/12/02 01:16:32;;;;;;;;;;;;;;;;;;5072961;28;19912;-58
2022/12/02 01:18:58;;;;;;;;;;;;;;;;;;5072748;28;19920;-57
2022/12/02 01:21:24;;;;;;;;;;;;;;;;;;5072995;28;20292;-54
2022/12/02 01:23:50;;;;;;;;;;;;;;;;;;5072770;28;19920;-54
2022/12/02 01:26:16;;;;;;;;;;;;;;;;;;5072756;28;19912;-57
2022/12/02 01:28:42;;;;;;;;;;;;;;;;;;5071661;28;19923;-57
2022/12/02 01:31:08;;;;;;;;;;;;;;;;;;5072746;28;19912;-57
2022/12/02 01:33:34;;;;;;;;;;;;;;;;;;5072500;28;19957;-57
2022/12/02 01:36:00;;;;;;;;;;;;;;;;;;5072699;28;19967;-57
2022/12/02 01:38:26;;;;;;;;;;;;;;;;;;5072800;28;20462;-58
2022/12/02 01:40:52;;;;;;;;;;;;;;;;;;5072495;28;19962;-58
2022/12/02 01:43:18;;;;;;;;;;;;;;;;;;5072437;28;19924;-56
2022/12/02 01:45:43;;;;;;;;;;;;;;;;;;5072461;28;19912;-56
2022/12/02 01:48:09;;;;;;;;;;;;;;;;;;5072562;28;19919;-57
2022/12/02 01:50:35;;;;;;;;;;;;;;;;;;5072250;28;19916;-59
2022/12/02 01:53:01;;;;;;;;;;;;;;;;;;5072438;28;20304;-58
2022/12/02 01:55:27;;;;;;;;;;;;;;;;;;5072411;28;20303;-58
2022/12/02 01:57:53;;;;;;;;;;;;;;;;;;5072328;28;19998;-58
2022/12/02 02:00:19;;;;;;;;;;;;;;;;;;5054233;28;19909;-55
2022/12/02 02:02:46;;;;;;;;;;;;;;;;;;5072522;28;20069;-54
2022/12/02 02:05:11;;;;;;;;;;;;;;;;;;5060053;28;20472;-54
2022/12/02 02:07:37;;;;;;;;;;;;;;;;;;5052503;28;19948;-58
2022/12/02 02:10:03;;;;;;;;;;;;;;;;;;5052106;28;19920;-55
2022/12/02 02:12:29;;;;;;;;;;;;;;;;;;5052350;28;19909;-57
2022/12/02 02:14:55;;;;;;;;;;;;;;;;;;5052420;28;19908;-57
2022/12/02 02:17:21;;;;;;;;;;;;;;;;;;5064297;28;20388;-57
2022/12/02 02:19:47;;;;;;;;;;;;;;;;;;5072169;28;19908;-57
2022/12/02 02:22:13;;;;;;;;;;;;;;;;;;5054298;28;19920;-58
2022/12/02 02:24:39;;;;;;;;;;;;;;;;;;5054130;28;19909;-58
2022/12/02 02:27:05;;;;;;;;;;;;;;;;;;5072132;28;20281;-56
2022/12/02 02:29:31;;;;;;;;;;;;;;;;;;5072430;28;19917;-58
2022/12/02 02:31:57;;;;;;;;;;;;;;;;;;5072390;28;20292;-58
2022/12/02 02:34:23;;;;;;;;;;;;;;;;;;5072050;28;19927;-58
2022/12/02 02:36:49;;;;;;;;;;;;;;;;;;5071953;28;19915;-58
2022/12/02 02:39:14;;;;;;;;;;;;;;;;;;5071554;28;19908;-56
2022/12/02 02:41:40;;;;;;;;;;;;;;;;;;5072034;28;20371;-56
2022/12/02 02:44:06;;;;;;;;;;;;;;;;;;5071984;28;20010;-55
2022/12/02 02:46:32;;;;;;;;;;;;;;;;;;5071964;28;19917;-58
2022/12/02 02:48:58;;;;;;;;;;;;;;;;;;5072119;28;19913;-58
2022/12/02 02:51:24;;;;;;;;;;;;;;;;;;5072037;28;20391;-57
2022/12/02 02:53:50;;;;;;;;;;;;;;;;;;5060021;28;20046;-58
2022/12/02 02:56:16;;;;;;;;;;;;;;;;;;5033874;28;20018;-57
2022/12/02 02:58:42;;;;;;;;;;;;;;;;;;5051682;28;19966;-57
2022/12/02 03:01:08;;;;;;;;;;;;;;;;;;5062143;28;20344;-57
2022/12/02 03:03:33;;;;;;;;;;;;;;;;;;5071591;28;19912;-58
2022/12/02 03:05:59;;;;;;;;;;;;;;;;;;5071334;28;19938;-57
2022/12/02 03:08:25;;;;;;;;;;;;;;;;;;5051577;28;20197;-57
2022/12/02 03:10:51;;;;;;;;;;;;;;;;;;5033857;28;19908;-59
2022/12/02 03:13:17;;;;;;;;;;;;;;;;;;5051620;28;19909;-57
2022/12/02 03:15:43;;;;;;;;;;;;;;;;;;5051668;28;19919;-58
2022/12/02 03:18:09;;;;;;;;;;;;;;;;;;5051842;28;19999;-55
2022/12/02 03:20:35;;;;;;;;;;;;;;;;;;5071709;28;20333;-53
2022/12/02 03:23:01;;;;;;;;;;;;;;;;;;5071613;28;19959;-57
2022/12/02 03:25:27;;;;;;;;;;;;;;;;;;5071523;28;20038;-58
2022/12/02 03:27:52;;;;;;;;;;;;;;;;;;5071639;28;19919;-57
2022/12/02 03:30:18;;;;;;;;;;;;;;;;;;5071399;28;19952;-57
2022/12/02 03:32:44;;;;;;;;;;;;;;;;;;5070739;28;20345;-57
2022/12/02 03:35:10;;;;;;;;;;;;;;;;;;5071173;28;20007;-57
2022/12/02 03:37:36;;;;;;;;;;;;;;;;;;5071624;28;19999;-58
2022/12/02 03:40:02;;;;;;;;;;;;;;;;;;5071212;28;20011;-58
2022/12/02 03:42:28;;;;;;;;;;;;;;;;;;5070409;28;19954;-58
2022/12/02 03:44:54;;;;;;;;;;;;;;;;;;5070822;28;19909;-58
2022/12/02 03:47:20;;;;;;;;;;;;;;;;;;5071537;28;19909;-56
2022/12/02 03:49:46;;;;;;;;;;;;;;;;;;5071349;28;20307;-58
2022/12/02 03:52:12;;;;;;;;;;;;;;;;;;5062660;28;20000;-58
2022/12/02 03:54:38;;;;;;;;;;;;;;;;;;5074499;28;19912;-58
2022/12/02 03:57:04;;;;;;;;;;;;;;;;;;5074685;28;20376;-58
2022/12/02 03:59:30;;;;;;;;;;;;;;;;;;5074875;28;19954;-57
2022/12/02 04:01:56;;;;;;;;;;;;;;;;;;5067657;28;19912;-55
2022/12/02 04:04:21;;;;;;;;;;;;;;;;;;5074415;28;19978;-58
2022/12/02 04:06:47;;;;;;;;;;;;;;;;;;5074281;28;20380;-58
2022/12/02 04:09:13;;;;;;;;;;;;;;;;;;5074154;28;19916;-58
2022/12/02 04:11:39;;;;;;;;;;;;;;;;;;5074586;28;19966;-58
2022/12/02 04:14:05;;;;;;;;;;;;;;;;;;5072978;28;19913;-57
2022/12/02 04:16:31;;;;;;;;;;;;;;;;;;5075130;28;20277;-56
2022/12/02 04:18:57;;;;;;;;;;;;;;;;;;5088746;28;19915;-57
2022/12/02 04:21:23;;;;;;;;;;;;;;;;;;5074507;28;19947;-57
2022/12/02 04:23:50;;;;;;;;;;;;;;;;;;5074188;28;19913;-58
2022/12/02 04:26:16;;;;;;;;;;;;;;;;;;5074249;28;19917;-58
2022/12/02 04:28:42;;;;;;;;;;;;;;;;;;5074136;28;19916;-58
2022/12/02 04:31:08;;;;;;;;;;;;;;;;;;5074171;28;19912;-57
2022/12/02 04:33:34;;;;;;;;;;;;;;;;;;5074120;28;20566;-57
2022/12/02 04:36:00;;;;;;;;;;;;;;;;;;5073933;28;19912;-56
2022/12/02 04:38:26;;;;;;;;;;;;;;;;;;5055494;28;19920;-57
2022/12/02 04:40:52;;;;;;;;;;;;;;;;;;5074095;28;19912;-57
2022/12/02 04:43:18;;;;;;;;;;;;;;;;;;5074230;28;19914;-55
2022/12/02 04:45:44;;;;;;;;;;;;;;;;;;5073348;28;19912;-56
2022/12/02 04:48:10;;;;;;;;;;;;;;;;;;5055373;28;19912;-58
2022/12/02 04:50:35;;;;;;;;;;;;;;;;;;5073648;28;19985;-58
2022/12/02 04:53:01;;;;;;;;;;;;;;;;;;5073383;28;19939;-57
2022/12/02 04:55:27;;;;;;;;;;;;;;;;;;5073492;28;19959;-58
2022/12/02 04:57:53;;;;;;;;;;;;;;;;;;5073920;28;20343;-57
2022/12/02 05:00:19;;;;;;;;;;;;;;;;;;5072754;28;19908;-58
2022/12/02 05:02:45;;;;;;;;;;;;;;;;;;5064777;28;20016;-58
2022/12/02 05:05:11;;;;;;;;;;;;;;;;;;5053457;28;19924;-58
2022/12/02 05:07:37;;;;;;;;;;;;;;;;;;5035798;28;19909;-58
2022/12/02 05:10:03;;;;;;;;;;;;;;;;;;5053403;28;19952;-58
2022/12/02 05:12:29;;;;;;;;;;;;;;;;;;5053664;28;19955;-57
2022/12/02 05:14:55;;;;;;;;;;;;;;;;;;5035565;28;19986;-58
2022/12/02 05:17:21;;;;;;;;;;;;;;;;;;5053710;28;19909;-58
2022/12/02 05:19:47;;;;;;;;;;;;;;;;;;5053327;28;20384;-58
2022/12/02 05:22:13;;;;;;;;;;;;;;;;;;5053346;28;19913;-56
2022/12/02 05:24:39;;;;;;;;;;;;;;;;;;5053310;28;19935;-53
2022/12/02 05:27:05;;;;;;;;;;;;;;;;;;5053424;28;19915;-58
2022/12/02 05:29:31;;;;;;;;;;;;;;;;;;5053305;28;20003;-56
2022/12/02 05:31:57;;;;;;;;;;;;;;;;;;5053338;28;19916;-57
2022/12/02 05:34:22;;;;;;;;;;;;;;;;;;5053085;28;20015;-58
2022/12/02 05:36:48;;;;;;;;;;;;;;;;;;5052969;28;20000;-57
2022/12/02 05:39:14;;;;;;;;;;;;;;;;;;5052897;28;19944;-54
2022/12/02 05:41:40;;;;;;;;;;;;;;;;;;5053181;28;19909;-58
2022/12/02 05:44:06;;;;;;;;;;;;;;;;;;5052971;28;20289;-57
2022/12/02 05:46:32;;;;;;;;;;;;;;;;;;5052918;28;20285;-57
2022/12/02 05:48:58;;;;;;;;;;;;;;;;;;5052630;28;19912;-57
2022/12/02 05:51:24;;;;;;;;;;;;;;;;;;5052937;28;19916;-58
2022/12/02 05:53:50;;;;;;;;;;;;;;;;;;5052738;28;19912;-56
2022/12/02 05:56:16;;;;;;;;;;;;;;;;;;5052820;28;20432;-58
2022/12/02 05:58:41;;;;;;;;;;;;;;;;;;5052515;28;20378;-57
2022/12/02 06:01:08;;;;;;;;;;;;;;;;;;5052669;28;19908;-57
2022/12/02 06:03:34;;;;;;;;;;;;;;;;;;5052514;28;20397;-53
2022/12/02 06:06:00;;;;;;;;;;;;;;;;;;5092645;22;20029;-64
2022/12/02 06:08:26;;;;;;;;;;;;;;;;;;5072091;28;19974;-62
2022/12/02 06:10:52;;;;;;;;;;;;;;;;;;5072451;28;19926;-64
2022/12/02 06:13:18;;;;;;;;;;;;;;;;;;5072189;28;19955;-64
2022/12/02 06:15:44;;;;;;;;;;;;;;;;;;5072421;28;19908;-64
2022/12/02 06:18:10;;;;;;;;;;;;;;;;;;5072429;28;19970;-64
2022/12/02 06:20:36;;;;;;;;;;;;;;;;;;5072378;28;19915;-63
2022/12/02 06:23:02;;;;;;;;;;;;;;;;;;5072412;28;19908;-64
2022/12/02 06:25:28;;;;;;;;;;;;;;;;;;5072333;28;19915;-64
2022/12/02 06:27:54;;;;;;;;;;;;;;;;;;5072392;28;20288;-62
2022/12/02 06:30:20;;;;;;;;;;;;;;;;;;5072201;28;20007;-61
2022/12/02 06:32:46;;;;;;;;;;;;;;;;;;5070992;28;19967;-62
2022/12/02 06:35:11;;;;;;;;;;;;;;;;;;5072212;28;20377;-62
2022/12/02 06:37:37;;;;;;;;;;;;;;;;;;5072294;28;19951;-62
2022/12/02 06:40:03;;;;;;;;;;;;;;;;;;5072097;28;19995;-62
2022/12/02 06:42:29;;;;;;;;;;;;;;;;;;5070956;28;19994;-62
2022/12/02 06:45:04;;;;;;;;;;;;;;;;;;5070870;28;19999;-62
2022/12/02 06:47:30;;;;;;;;;;;;;;;;;;5072262;28;19912;-62
2022/12/02 06:49:56;;;;;;;;;;;;;;;;;;5072123;28;20007;-62
2022/12/02 06:52:22;;;;;;;;;;;;;;;;;;5072166;28;19954;-62
2022/12/02 06:54:48;;;;;;;;;;;;;;;;;;5071977;28;19915;-62
2022/12/02 06:57:14;;;;;;;;;;;;;;;;;;5072030;28;20281;-62
2022/12/02 06:59:40;;;;;;;;;;;;;;;;;;5071951;28;19908;-62
2022/12/02 07:02:06;;;;;;;;;;;;;;;;;;5072087;28;20361;-62
2022/12/02 07:04:32;;;;;;;;;;;;;;;;;;5071789;28;19920;-62
2022/12/02 07:06:57;;;;;;;;;;;;;;;;;;5071958;28;19909;-62
2022/12/02 07:09:23;;;;;;;;;;;;;;;;;;5071705;28;20323;-62
2022/12/02 07:11:49;;;;;;;;;;;;;;;;;;5071922;28;19909;-62
2022/12/02 07:14:15;;;;;;;;;;;;;;;;;;5071813;28;19953;-62
2022/12/02 07:16:41;;;;;;;;;;;;;;;;;;5071953;28;20003;-62
2022/12/02 07:19:07;;;;;;;;;;;;;;;;;;5071813;28;19915;-62
2022/12/02 07:21:33;;;;;;;;;;;;;;;;;;5071758;28;20665;-62
2022/12/02 07:23:59;;;;;;;;;;;;;;;;;;5071842;28;20058;-62
2022/12/02 07:26:25;;;;;;;;;;;;;;;;;;5074348;28;19920;-58
2022/12/02 07:28:51;;;;;;;;;;;;;;;;;;5075125;28;19919;-55
2022/12/02 07:31:17;;;;;;;;;;;;;;;;;;5075513;28;19962;-55
2022/12/02 07:33:43;;;;;;;;;;;;;;;;;;5075449;28;19909;-56
2022/12/02 07:36:09;;;;;;;;;;;;;;;;;;5074157;28;19935;-57
2022/12/02 07:38:35;;;;;;;;;;;;;;;;;;5075266;28;19909;-58
2022/12/02 07:41:01;;;;;;;;;;;;;;;;;;5075403;28;19912;-53
2022/12/02 07:43:27;;;;;;;;;;;;;;;;;;5075299;28;19915;-54
2022/12/02 07:45:53;;;;;;;;;;;;;;;;;;5075143;28;19908;-60
2022/12/02 07:48:19;;;;;;;;;;;;;;;;;;5075137;28;19916;-61
2022/12/02 07:50:45;;;;;;;;;;;;;;;;;;5075222;28;20384;-61
2022/12/02 07:53:10;;;;;;;;;;;;;;;;;;5075175;28;19979;-61
2022/12/02 07:55:36;;;;;;;;;;;;;;;;;;5075041;28;19915;-59
2022/12/02 07:58:02;;;;;;;;;;;;;;;;;;5075260;28;19915;-60
2022/12/02 08:00:28;;;;;;;;;;;;;;;;;;5075044;28;19909;-61
2022/12/02 08:02:55;;;;;;;;;;;;;;;;;;5074615;28;19915;-60
2022/12/02 08:05:21;;;;;;;;;;;;;;;;;;5074544;28;19917;-60
2022/12/02 08:07:46;;;;;;;;;;;;;;;;;;5073421;28;20327;-61
2022/12/02 08:10:12;;;;;;;;;;;;;;;;;;5074396;28;19934;-60
2022/12/02 08:12:38;;;;;;;;;;;;;;;;;;5074591;28;19915;-60
2022/12/02 08:15:04;;;;;;;;;;;;;;;;;;5074401;28;19935;-57
2022/12/02 08:17:30;;;;;;;;;;;;;;;;;;5074657;28;20011;-57
2022/12/02 08:19:56;;;;;;;;;;;;;;;;;;5073408;28;19940;-61
2022/12/02 08:22:22;;;;;;;;;;;;;;;;;;5074670;28;19940;-61
2022/12/02 08:24:48;;;;;;;;;;;;;;;;;;5073140;28;20351;-62
2022/12/02 08:27:14;;;;;;;;;;;;;;;;;;5074486;28;20011;-61
2022/12/02 08:29:40;;;;;;;;;;;;;;;;;;5074228;28;19912;-61
2022/12/02 08:32:06;;;;;;;;;;;;;;;;;;5074379;28;19908;-61
2022/12/02 08:34:31;;;;;;;;;;;;;;;;;;5074252;28;19912;-62
2022/12/02 08:36:57;;;;;;;;;;;;;;;;;;5073725;28;19908;-62
2022/12/02 08:39:23;;;;;;;;;;;;;;;;;;5074127;28;20004;-62
2022/12/02 08:41:49;;;;;;;;;;;;;;;;;;5074220;28;19912;-62
2022/12/02 08:44:15;;;;;;;;;;;;;;;;;;5073778;28;19966;-62
2022/12/02 08:46:41;;;;;;;;;;;;;;;;;;5074160;28;20342;-62
2022/12/02 08:49:07;;;;;;;;;;;;;;;;;;5073912;28;19938;-62
2022/12/02 08:51:33;;;;;;;;;;;;;;;;;;5074111;28;19966;-65
2022/12/02 08:53:59;;;;;;;;;;;;;;;;;;5072679;28;20361;-62
2022/12/02 08:56:25;;;;;;;;;;;;;;;;;;5073917;28;19909;-62
2022/12/02 08:58:51;;;;;;;;;;;;;;;;;;5073654;28;19909;-62
2022/12/02 09:01:17;;;;;;;;;;;;;;;;;;5073716;28;20484;-63
2022/12/02 09:03:43;;;;;;;;;;;;;;;;;;5073818;28;20045;-62
2022/12/02 09:06:09;;;;;;;;;;;;;;;;;;5073589;28;19924;-62
2022/12/02 09:08:35;;;;;;;;;;;;;;;;;;5071702;28;19977;-62
2022/12/02 09:11:01;;;;;;;;;;;;;;;;;;5073181;28;19944;-62
2022/12/02 09:13:26;;;;;;;;;;;;;;;;;;5073397;28;19909;-62
2022/12/02 09:15:52;;;;;;;;;;;;;;;;;;5073436;28;19912;-62
2022/12/02 09:18:18;;;;;;;;;;;;;;;;;;5071878;28;19912;-62
2022/12/02 09:20:44;;;;;;;;;;;;;;;;;;5073646;28;19914;-63
2022/12/02 09:23:10;;;;;;;;;;;;;;;;;;5072901;28;19919;-62
2022/12/02 09:25:36;;;;;;;;;;;;;;;;;;5073215;28;19951;-62
2022/12/02 09:28:02;;;;;;;;;;;;;;;;;;5073261;28;19943;-62
2022/12/02 09:30:28;;;;;;;;;;;;;;;;;;5073030;28;20276;-62
2022/12/02 09:32:54;;;;;;;;;;;;;;;;;;5073244;28;19958;-63
2022/12/02 09:35:20;;;;;;;;;;;;;;;;;;5073435;28;19940;-63
2022/12/02 09:37:46;;;;;;;;;;;;;;;;;;5073077;28;19908;-62
2022/12/02 09:40:12;;;;;;;;;;;;;;;;;;5072914;28;19913;-62
2022/12/02 09:42:37;;;;;;;;;;;;;;;;;;5073011;28;19916;-62
2022/12/02 09:45:03;;;;;;;;;;;;;;;;;;5072836;28;19984;-62
2022/12/02 09:47:29;;;;;;;;;;;;;;;;;;5071989;28;19913;-62
2022/12/02 09:49:55;;;;;;;;;;;;;;;;;;5071919;28;19912;-61
2022/12/02 09:52:21;;;;;;;;;;;;;;;;;;5071557;28;19912;-59
2022/12/02 09:54:47;;;;;;;;;;;;;;;;;;5070458;28;19908;-61
2022/12/02 09:57:13;;;;;;;;;;;;;;;;;;5072663;28;19962;-61
2022/12/02 09:59:39;;;;;;;;;;;;;;;;;;5072465;28;19912;-61
2022/12/02 10:02:05;;;;;;;;;;;;;;;;;;5072613;28;20346;-62
2022/12/02 10:04:31;;;;;;;;;;;;;;;;;;5072335;28;19916;-61
2022/12/02 10:06:56;;;;;;;;;;;;;;;;;;5072471;28;19909;-61
2022/12/02 10:09:22;;;;;;;;;;;;;;;;;;5072194;28;19919;-61
2022/12/02 10:11:48;;;;;;;;;;;;;;;;;;5072427;28;20293;-61
2022/12/02 10:14:14;;;;;;;;;;;;;;;;;;5072382;28;20206;-61
2022/12/02 10:16:40;;;;;;;;;;;;;;;;;;5072422;28;19923;-61
2022/12/02 10:19:06;;;;;;;;;;;;;;;;;;5072344;28;19904;-61
2022/12/02 10:21:32;;;;;;;;;;;;;;;;;;5072311;28;19934;-61
2022/12/02 10:23:58;;;;;;;;;;;;;;;;;;5072267;28;19904;-61
2022/12/02 10:26:24;;;;;;;;;;;;;;;;;;5072213;28;19908;-61
2022/12/02 10:28:50;;;;;;;;;;;;;;;;;;5070738;28;19905;-62
2022/12/02 10:31:18;;;;;;;;;;;;;;;;;;5072398;28;19916;-61
2022/12/02 10:33:44;;;;;;;;;;;;;;;;;;5072258;28;19915;-61
2022/12/02 10:36:09;;;;;;;;;;;;;;;;;;5070728;28;20003;-61
2022/12/02 10:38:35;;;;;;;;;;;;;;;;;;5071908;28;19999;-61
2022/12/02 10:41:01;;;;;;;;;;;;;;;;;;5072073;28;19955;-61
2022/12/02 10:43:27;;;;;;;;;;;;;;;;;;5072056;28;20377;-61
2022/12/02 10:45:53;;;;;;;;;;;;;;;;;;5070767;28;19999;-61
2022/12/02 10:48:19;;;;;;;;;;;;;;;;;;5071920;28;19999;-61
2022/12/02 10:50:45;;;;;;;;;;;;;;;;;;5071961;28;20003;-61
2022/12/02 10:53:11;;;;;;;;;;;;;;;;;;5071906;28;19915;-62
2022/12/02 10:55:37;;;;;;;;;;;;;;;;;;5071824;28;19962;-62
2022/12/02 10:58:03;;;;;;;;;;;;;;;;;;5070817;28;19978;-61
2022/12/02 11:00:28;;;;;;;;;;;;;;;;;;5073688;28;20308;-61
2022/12/02 11:02:54;;;;;;;;;;;;;;;;;;5074707;28;19908;-60
2022/12/02 11:05:20;;;;;;;;;;;;;;;;;;5075676;28;19916;-61
2022/12/02 11:07:46;;;;;;;;;;;;;;;;;;5074794;28;19915;-61
2022/12/02 11:10:13;;;;;;;;;;;;;;;;;;5075659;28;20287;-61
2022/12/02 11:12:38;;;;;;;;;;;;;;;;;;5075907;28;20373;-61
2022/12/02 11:15:04;;;;;;;;;;;;;;;;;;5074881;28;19947;-61
2022/12/02 11:17:33;;;;;;;;;;;;;;;;;;5070586;28;20448;-61
2022/12/02 11:19:59;;;;;;;;;;;;;;;;;;5074691;28;20270;-61
2022/12/02 11:22:25;;;;;;;;;;;;;;;;;;5075597;28;19919;-61
2022/12/02 11:24:51;;;;;;;;;;;;;;;;;;5073650;28;19913;-61
2022/12/02 11:27:17;;;;;;;;;;;;;;;;;;5074608;28;19916;-60
2022/12/02 11:29:43;;;;;;;;;;;;;;;;;;5075134;28;19912;-60
2022/12/02 11:32:09;;;;;;;;;;;;;;;;;;5074889;28;19995;-60
2022/12/02 11:34:35;;;;;;;;;;;;;;;;;;5067807;28;19956;-61
2022/12/02 11:37:01;;;;;;;;;;;;;;;;;;5077704;28;19958;-61
2022/12/02 11:39:26;;;;;;;;;;;;;;;;;;5075081;28;19939;-61
2022/12/02 11:41:52;;;;;;;;;;;;;;;;;;5074949;28;19970;-61
2022/12/02 11:44:18;;;;;;;;;;;;;;;;;;5074667;28;19947;-61
2022/12/02 11:46:44;;;;;;;;;;;;;;;;;;5074836;28;19955;-61
2022/12/02 11:49:10;;;;;;;;;;;;;;;;;;5074914;28;20007;-60
2022/12/02 11:51:36;;;;;;;;;;;;;;;;;;5074892;28;19916;-60
2022/12/02 11:54:02;;;;;;;;;;;;;;;;;;5074495;28;19916;-61
2022/12/02 11:56:28;;;;;;;;;;;;;;;;;;5074775;28;19912;-60
2022/12/02 11:58:54;;;;;;;;;;;;;;;;;;5074783;28;20373;-61
2022/12/02 12:01:20;;;;;;;;;;;;;;;;;;5074077;28;19912;-61
2022/12/02 12:03:46;;;;;;;;;;;;;;;;;;5073611;28;19920;-61
2022/12/02 12:06:11;;;;;;;;;;;;;;;;;;5120159;22;19927;-52
2022/12/02 12:08:38;;;;;;;;;;;;;;;;;;5111165;28;19935;-51
2022/12/02 12:11:03;;;;;;;;;;;;;;;;;;5099926;28;19921;-51
2022/12/02 12:13:29;;;;;;;;;;;;;;;;;;5095971;28;20350;-51
2022/12/02 12:15:55;;;;;;;;;;;;;;;;;;5109493;28;20002;-51
2022/12/02 12:18:21;;;;;;;;;;;;;;;;;;5098041;28;19951;-52
2022/12/02 12:20:48;;;;;;;;;;;;;;;;;;5096434;28;19943;-50
2022/12/02 12:23:14;;;;;;;;;;;;;;;;;;5095921;28;19935;-51
2022/12/02 12:25:40;;;;;;;;;;;;;;;;;;5077704;28;20383;-51
2022/12/02 12:28:06;;;;;;;;;;;;;;;;;;5102599;28;19912;-51
2022/12/02 12:30:32;;;;;;;;;;;;;;;;;;5100446;28;20462;-51
2022/12/02 12:32:58;;;;;;;;;;;;;;;;;;5115397;28;19939;-51
2022/12/02 12:35:24;;;;;;;;;;;;;;;;;;5095015;28;19923;-51
2022/12/02 12:37:50;;;;;;;;;;;;;;;;;;5104987;28;19912;-50
2022/12/02 12:40:16;;;;;;;;;;;;;;;;;;5108016;28;19918;-51
2022/12/02 12:42:42;;;;;;;;;;;;;;;;;;5097472;28;19919;-50
2022/12/02 12:45:08;;;;;;;;;;;;;;;;;;5102361;28;19981;-51
2022/12/02 12:47:34;;;;;;;;;;;;;;;;;;5084854;28;20471;-50
2022/12/02 12:50:00;;;;;;;;;;;;;;;;;;5073816;28;19920;-51
2022/12/02 12:52:26;;;;;;;;;;;;;;;;;;5084933;28;19916;-53
2022/12/02 12:54:52;;;;;;;;;;;;;;;;;;5114352;28;19911;-52
2022/12/02 12:57:19;;;;;;;;;;;;;;;;;;5097154;28;19953;-50
2022/12/02 12:59:45;;;;;;;;;;;;;;;;;;5095331;28;19912;-51
2022/12/02 13:02:11;;;;;;;;;;;;;;;;;;5111581;28;20094;-50
2022/12/02 13:04:37;;;;;;;;;;;;;;;;;;5112494;28;19955;-52
2022/12/02 13:07:03;;;;;;;;;;;;;;;;;;5094592;28;19959;-50
2022/12/02 13:09:29;;;;;;;;;;;;;;;;;;5075613;28;19912;-51
2022/12/02 13:11:54;;;;;;;;;;;;;;;;;;5095098;28;19919;-50
2022/12/02 13:14:20;;;;;;;;;;;;;;;;;;5094661;28;19919;-50
2022/12/02 13:16:47;;;;;;;;;;;;;;;;;;5106325;28;19919;-51
2022/12/02 13:19:12;;;;;;;;;;;;;;;;;;5112251;28;19916;-50
2022/12/02 13:21:38;;;;;;;;;;;;;;;;;;5099861;28;20268;-50
2022/12/02 13:24:04;;;;;;;;;;;;;;;;;;5093548;28;19908;-50
2022/12/02 13:26:30;;;;;;;;;;;;;;;;;;5093885;28;19908;-51
2022/12/02 13:28:56;;;;;;;;;;;;;;;;;;5108416;28;20291;-51
2022/12/02 13:31:22;;;;;;;;;;;;;;;;;;5102567;28;19919;-51
2022/12/02 13:33:48;;;;;;;;;;;;;;;;;;5093442;28;20380;-50
2022/12/02 13:36:14;;;;;;;;;;;;;;;;;;5094617;28;19912;-52
2022/12/02 13:38:40;;;;;;;;;;;;;;;;;;5093316;28;19919;-51
2022/12/02 13:41:06;;;;;;;;;;;;;;;;;;5093425;28;20364;-51
2022/12/02 13:43:32;;;;;;;;;;;;;;;;;;5089378;28;20395;-52
2022/12/02 13:45:58;;;;;;;;;;;;;;;;;;5107185;28;19948;-50
2022/12/02 13:48:24;;;;;;;;;;;;;;;;;;5113092;28;19919;-51
2022/12/02 13:50:49;;;;;;;;;;;;;;;;;;5083964;28;19916;-51
2022/12/02 13:53:15;;;;;;;;;;;;;;;;;;5093270;28;19918;-51
2022/12/02 13:55:41;;;;;;;;;;;;;;;;;;5093007;28;19908;-51
2022/12/02 13:58:07;;;;;;;;;;;;;;;;;;5104977;28;19915;-51
2022/12/02 14:00:33;;;;;;;;;;;;;;;;;;5108502;28;19912;-50
2022/12/02 14:02:59;;;;;;;;;;;;;;;;;;5112969;28;19912;-51
2022/12/02 14:05:25;;;;;;;;;;;;;;;;;;5104630;28;19920;-50
2022/12/02 14:07:51;;;;;;;;;;;;;;;;;;5082569;28;20007;-51
2022/12/02 14:10:17;;;;;;;;;;;;;;;;;;5098278;28;19916;-53
2022/12/02 14:12:43;;;;;;;;;;;;;;;;;;5094992;28;19908;-51
2022/12/02 14:15:09;;;;;;;;;;;;;;;;;;5106419;28;19911;-50
2022/12/02 14:17:35;;;;;;;;;;;;;;;;;;5094982;28;19918;-50
2022/12/02 14:20:00;;;;;;;;;;;;;;;;;;5090043;28;19999;-50
2022/12/02 14:22:26;;;;;;;;;;;;;;;;;;5089956;28;19912;-50
2022/12/02 14:24:52;;;;;;;;;;;;;;;;;;5062192;28;19913;-50
2022/12/02 14:27:18;;;;;;;;;;;;;;;;;;5072426;28;19908;-51
2022/12/02 14:29:44;;;;;;;;;;;;;;;;;;5086584;28;20014;-53
2022/12/02 14:32:10;;;;;;;;;;;;;;;;;;5101537;28;19912;-50
2022/12/02 14:34:36;;;;;;;;;;;;;;;;;;5097058;28;19911;-51
2022/12/02 14:37:02;;;;;;;;;;;;;;;;;;5112849;28;20376;-52
2022/12/02 14:39:28;;;;;;;;;;;;;;;;;;5109162;28;19912;-51
2022/12/02 14:41:54;;;;;;;;;;;;;;;;;;5093183;28;19946;-50
2022/12/02 14:44:20;;;;;;;;;;;;;;;;;;5098572;28;19955;-50
2022/12/02 14:46:46;;;;;;;;;;;;;;;;;;5096562;28;19965;-51
2022/12/02 14:49:12;;;;;;;;;;;;;;;;;;5094631;28;20002;-51
2022/12/02 14:51:37;;;;;;;;;;;;;;;;;;5092271;28;19915;-50
2022/12/02 14:54:03;;;;;;;;;;;;;;;;;;5095618;28;19919;-51
2022/12/02 14:56:29;;;;;;;;;;;;;;;;;;5092265;28;19908;-50
2022/12/02 14:58:55;;;;;;;;;;;;;;;;;;5098005;28;19919;-50
2022/12/02 15:01:21;;;;;;;;;;;;;;;;;;5099124;28;19915;-50
2022/12/02 15:03:47;;;;;;;;;;;;;;;;;;5108946;28;19916;-50
2022/12/02 15:06:13;;;;;;;;;;;;;;;;;;5109800;28;19922;-52
2022/12/02 15:08:39;;;;;;;;;;;;;;;;;;5087205;28;19919;-51
2022/12/02 15:11:05;;;;;;;;;;;;;;;;;;5112449;28;20272;-51
2022/12/02 15:13:31;;;;;;;;;;;;;;;;;;5112356;28;19908;-50
2022/12/02 15:15:56;;;;;;;;;;;;;;;;;;5112243;28;19908;-50
2022/12/02 15:18:22;;;;;;;;;;;;;;;;;;5112162;28;19908;-52
2022/12/02 15:20:48;;;;;;;;;;;;;;;;;;5112315;28;20041;-50
2022/12/02 15:23:14;;;;;;;;;;;;;;;;;;5112180;28;19912;-50
2022/12/02 15:25:40;;;;;;;;;;;;;;;;;;5112070;28;19908;-50
2022/12/02 15:28:06;;;;;;;;;;;;;;;;;;5111971;28;20004;-50
2022/12/02 15:30:32;;;;;;;;;;;;;;;;;;5112071;28;19918;-50
2022/12/02 15:32:58;;;;;;;;;;;;;;;;;;5112230;28;20094;-50
2022/12/02 15:35:24;;;;;;;;;;;;;;;;;;5111964;28;20021;-50
2022/12/02 15:37:50;;;;;;;;;;;;;;;;;;5112092;28;20007;-50
2022/12/02 15:40:16;;;;;;;;;;;;;;;;;;5112015;28;19912;-50
2022/12/02 15:42:42;;;;;;;;;;;;;;;;;;5112163;28;19960;-50
2022/12/02 15:45:08;;;;;;;;;;;;;;;;;;5111999;28;19908;-51
2022/12/02 15:47:33;;;;;;;;;;;;;;;;;;5113652;28;19912;-53
2022/12/02 15:49:59;;;;;;;;;;;;;;;;;;5115758;28;20371;-50
2022/12/02 15:52:25;;;;;;;;;;;;;;;;;;5115859;28;19952;-50
2022/12/02 15:54:51;;;;;;;;;;;;;;;;;;5115546;28;20279;-50
2022/12/02 15:57:17;;;;;;;;;;;;;;;;;;5115638;28;19908;-50
2022/12/02 15:59:43;;;;;;;;;;;;;;;;;;5115533;28;19907;-49
2022/12/02 16:02:09;;;;;;;;;;;;;;;;;;5115586;28;19916;-50
2022/12/02 16:04:35;;;;;;;;;;;;;;;;;;5115461;28;19908;-50
2022/12/02 16:07:01;;;;;;;;;;;;;;;;;;5115700;28;19938;-51
2022/12/02 16:09:27;;;;;;;;;;;;;;;;;;5115341;28;19912;-50
2022/12/02 16:11:53;;;;;;;;;;;;;;;;;;5115411;28;19919;-50
2022/12/02 16:14:19;;;;;;;;;;;;;;;;;;5115327;28;19907;-51
2022/12/02 16:16:44;;;;;;;;;;;;;;;;;;5115334;28;19961;-50
2022/12/02 16:19:10;;;;;;;;;;;;;;;;;;5115223;28;19907;-50
2022/12/02 16:21:36;;;;;;;;;;;;;;;;;;5115259;28;19908;-50
2022/12/02 16:24:02;;;;;;;;;;;;;;;;;;5115228;28;19908;-50
2022/12/02 16:26:28;;;;;;;;;;;;;;;;;;5096996;28;20027;-53
2022/12/02 16:28:54;;;;;;;;;;;;;;;;;;5115108;28;19947;-50
2022/12/02 16:31:20;;;;;;;;;;;;;;;;;;5115187;28;20005;-50
2022/12/02 16:33:46;;;;;;;;;;;;;;;;;;5096853;28;20318;-50
2022/12/02 16:36:12;;;;;;;;;;;;;;;;;;5114915;28;20382;-50
2022/12/02 16:38:38;;;;;;;;;;;;;;;;;;5114808;28;19918;-50